createdAt,value
2019-01-31T01:42:37.729Z,22.30
2019-01-31T01:45:44.316Z,22.30
2019-01-31T01:48:48.696Z,22.30
2019-01-31T01:52:03.079Z,22.20
2019-01-31T01:55:12.450Z,22.30
2019-01-31T01:58:13.194Z,22.30
2019-01-31T02:01:15.281Z,22.20
2019-01-31T02:04:16.404Z,22.20
2019-01-31T02:07:32.388Z,22.20
2019-01-31T02:10:28.047Z,22.20
2019-01-31T02:13:25.443Z,22.30
2019-01-31T02:16:29.724Z,22.30
2019-01-31T02:19:33.833Z,22.20
2019-01-31T02:22:39.969Z,22.20
2019-01-31T02:25:35.819Z,22.20
2019-01-31T02:28:40.811Z,22.00
2019-01-31T02:31:54.065Z,21.90
2019-01-31T02:35:03.229Z,21.80
2019-01-31T02:38:11.657Z,21.70
2019-01-31T02:41:22.917Z,21.70
2019-01-31T02:44:50.581Z,21.70
2019-01-31T02:47:55.563Z,21.70
2019-01-31T02:51:06.068Z,21.60
2019-01-31T02:54:14.662Z,21.60
2019-01-31T02:57:24.882Z,21.60
2019-01-31T03:00:25.524Z,21.70
2019-01-31T03:03:35.977Z,21.60
2019-01-31T03:06:44.956Z,21.60
2019-01-31T03:10:00.836Z,21.60
2019-01-31T03:13:08.819Z,21.70
2019-01-31T03:16:18.838Z,21.60
2019-01-31T03:19:17.941Z,21.70
2019-01-31T03:22:34.677Z,21.60
2019-01-31T03:26:03.550Z,21.60
2019-01-31T03:29:13.895Z,21.60
2019-01-31T03:35:12.323Z,21.60
2019-01-31T03:38:31.971Z,21.60
2019-01-31T03:41:47.107Z,21.60
2019-01-31T03:44:45.430Z,21.60
2019-01-31T03:47:45.921Z,21.60
2019-01-31T03:51:01.755Z,21.70
2019-01-31T03:54:27.380Z,21.80
2019-01-31T03:57:47.871Z,21.90
2019-01-31T04:01:01.243Z,21.90
2019-01-31T04:04:01.031Z,22.00
2019-01-31T04:07:11.863Z,21.90
2019-01-31T04:25:04.991Z,21.90
2019-01-31T04:28:19.861Z,21.80
2019-01-31T04:31:17.479Z,21.90
2019-01-31T04:34:34.833Z,21.80
2019-01-31T04:37:27.455Z,21.90
2019-01-31T04:40:30.540Z,21.90
2019-01-31T04:43:15.557Z,21.90
2019-01-31T04:46:09.645Z,22.10
2019-01-31T04:49:28.260Z,22.10
2019-01-31T04:52:24.830Z,22.20
2019-01-31T04:55:17.513Z,22.20
2019-01-31T04:58:09.582Z,22.10
2019-01-31T05:01:05.754Z,22.20
2019-01-31T05:03:58.352Z,22.20
2019-01-31T05:06:51.036Z,22.20
2019-01-31T05:09:43.354Z,22.30
2019-01-31T05:12:40.384Z,22.30
2019-01-31T05:15:37.251Z,22.30
2019-01-31T05:18:57.880Z,22.40
2019-01-31T06:34:52.743Z,22.60
2019-01-31T06:47:43.207Z,22.60
2019-01-31T06:50:42.142Z,22.60
2019-01-31T06:53:57.794Z,22.50
2019-01-31T07:56:30.262Z,22.80
2019-01-31T08:02:13.096Z,22.80
2019-01-31T08:05:11.845Z,22.80
2019-01-31T08:08:11.891Z,22.70
2019-01-31T08:11:01.920Z,22.80
2019-01-31T08:13:58.375Z,22.80
2019-01-31T08:27:39.756Z,22.70
2019-01-31T08:30:50.268Z,22.70
2019-01-31T08:33:41.485Z,22.60
2019-01-31T08:36:41.678Z,22.70
2019-01-31T08:39:36.263Z,22.70
2019-01-31T08:45:31.637Z,22.60
2019-01-31T08:48:23.886Z,22.70
2019-01-31T08:51:16.171Z,22.70
2019-01-31T08:54:13.469Z,22.80
2019-01-31T08:57:19.783Z,22.80
2019-01-31T09:00:35.582Z,22.70
2019-01-31T09:03:29.014Z,22.80
2019-01-31T09:25:52.381Z,22.80
2019-01-31T11:07:18.491Z,22.90
2019-01-31T11:10:32.513Z,23.00
2019-01-31T11:13:45.382Z,22.90
2019-01-31T11:16:56.958Z,22.90
2019-01-31T11:20:14.618Z,22.90
2019-01-31T11:54:11.066Z,23.00
2019-01-31T12:06:55.261Z,22.80
2019-01-31T12:10:16.814Z,22.90
2019-01-31T12:17:29.643Z,22.80
2019-01-31T12:35:20.250Z,22.80
2019-01-31T12:53:35.363Z,22.60
2019-01-31T12:59:52.740Z,22.70
2019-01-31T13:02:49.931Z,22.70
2019-01-31T13:09:17.006Z,22.70
2019-01-31T13:12:17.112Z,22.80
2019-01-31T13:15:11.551Z,22.70
2019-01-31T13:18:05.710Z,22.60
2019-01-31T13:31:45.608Z,22.70
2019-01-31T13:35:08.329Z,22.90
2019-01-31T13:42:39.472Z,22.90
2019-01-31T13:45:34.064Z,22.80
2019-01-31T13:48:28.715Z,22.80
